sensor_id;sensor_type;location;lat;lon;timestamp;P1;P2;P0
28026;PMS5003;15344;52.342;-1.290;2023-05-19T00:01:48;13;13;
28026;PMS5003;15344;52.342;-1.290;2023-05-19T00:04:13;16;14;
28026;PMS5003;15344;52.342;-1.290;2023-05-19T00:06:39;14;13;
28026;PMS5003;15344;52.342;-1.290;2023-05-19T00:09:04;14;13;
28026;PMS5003;15344;52.342;-1.290;2023-05-19T00:11:30;14;11;
28026;PMS5003;15344;52.342;-1.290;2023-05-19T00:13:56;16;12;
28026;PMS5003;15344;52.342;-1.290;2023-05-19T00:16:21;17;15;
28026;PMS5003;15344;52.342;-1.290;2023-05-19T00:18:46;13;11;
28026;PMS5003;15344;52.342;-1.290;2023-05-19T00:21:12;13;11;
28026;PMS5003;15344;52.342;-1.290;2023-05-19T00:23:37;12;11;
28026;PMS5003;15344;52.342;-1.290;2023-05-19T00:26:02;13;10;
28026;PMS5003;15344;52.342;-1.290;2023-05-19T00:28:28;14;12;
28026;PMS5003;15344;52.342;-1.290;2023-05-19T00:30:53;11;8;
28026;PMS5003;15344;52.342;-1.290;2023-05-19T00:33:19;12;10;
28026;PMS5003;15344;52.342;-1.290;2023-05-19T00:35:44;14;12;
28026;PMS5003;15344;52.342;-1.290;2023-05-19T00:38:09;15;11;
28026;PMS5003;15344;52.342;-1.290;2023-05-19T00:40:34;12;11;
28026;PMS5003;15344;52.342;-1.290;2023-05-19T00:43:00;13;13;
28026;PMS5003;15344;52.342;-1.290;2023-05-19T00:45:26;18;13;
28026;PMS5003;15344;52.342;-1.290;2023-05-19T00:47:51;19;15;
28026;PMS5003;15344;52.342;-1.290;2023-05-19T00:50:17;13;11;
28026;PMS5003;15344;52.342;-1.290;2023-05-19T00:52:43;15;11;
28026;PMS5003;15344;52.342;-1.290;2023-05-19T00:55:08;16;13;
28026;PMS5003;15344;52.342;-1.290;2023-05-19T00:57:34;19;13;
28026;PMS5003;15344;52.342;-1.290;2023-05-19T00:59:59;12;12;
28026;PMS5003;15344;52.342;-1.290;2023-05-19T01:02:25;14;13;
28026;PMS5003;15344;52.342;-1.290;2023-05-19T01:04:50;16;13;
28026;PMS5003;15344;52.342;-1.290;2023-05-19T01:07:16;17;11;
28026;PMS5003;15344;52.342;-1.290;2023-05-19T01:09:41;11;11;
28026;PMS5003;15344;52.342;-1.290;2023-05-19T01:12:06;14;13;
28026;PMS5003;15344;52.342;-1.290;2023-05-19T01:14:32;14;12;
28026;PMS5003;15344;52.342;-1.290;2023-05-19T01:17:00;11;11;
28026;PMS5003;15344;52.342;-1.290;2023-05-19T01:19:28;16;14;
28026;PMS5003;15344;52.342;-1.290;2023-05-19T01:21:54;12;12;
28026;PMS5003;15344;52.342;-1.290;2023-05-19T01:26:43;15;13;
28026;PMS5003;15344;52.342;-1.290;2023-05-19T01:29:07;9;9;
28026;PMS5003;15344;52.342;-1.290;2023-05-19T01:31:30;12;11;
28026;PMS5003;15344;52.342;-1.290;2023-05-19T01:33:55;13;10;
28026;PMS5003;15344;52.342;-1.290;2023-05-19T01:36:21;13;9;
28026;PMS5003;15344;52.342;-1.290;2023-05-19T01:38:45;18;14;
28026;PMS5003;15344;52.342;-1.290;2023-05-19T01:41:10;9;9;
28026;PMS5003;15344;52.342;-1.290;2023-05-19T01:43:36;16;14;
28026;PMS5003;15344;52.342;-1.290;2023-05-19T01:46:01;12;11;
28026;PMS5003;15344;52.342;-1.290;2023-05-19T01:48:26;13;12;
28026;PMS5003;15344;52.342;-1.290;2023-05-19T01:50:52;10;10;
28026;PMS5003;15344;52.342;-1.290;2023-05-19T01:53:17;17;16;
28026;PMS5003;15344;52.342;-1.290;2023-05-19T01:55:43;13;12;
28026;PMS5003;15344;52.342;-1.290;2023-05-19T01:58:09;10;10;
28026;PMS5003;15344;52.342;-1.290;2023-05-19T02:00:36;11;11;
28026;PMS5003;15344;52.342;-1.290;2023-05-19T02:03:02;16;11;
28026;PMS5003;15344;52.342;-1.290;2023-05-19T02:05:26;12;12;
28026;PMS5003;15344;52.342;-1.290;2023-05-19T02:07:51;17;14;
28026;PMS5003;15344;52.342;-1.290;2023-05-19T02:10:17;17;12;
28026;PMS5003;15344;52.342;-1.290;2023-05-19T02:12:40;17;15;
28026;PMS5003;15344;52.342;-1.290;2023-05-19T02:15:08;18;14;
28026;PMS5003;15344;52.342;-1.290;2023-05-19T02:17:33;16;16;
28026;PMS5003;15344;52.342;-1.290;2023-05-19T02:19:58;21;17;
28026;PMS5003;15344;52.342;-1.290;2023-05-19T02:22:23;18;15;
28026;PMS5003;15344;52.342;-1.290;2023-05-19T02:24:48;17;14;
28026;PMS5003;15344;52.342;-1.290;2023-05-19T02:27:14;19;16;
28026;PMS5003;15344;52.342;-1.290;2023-05-19T02:29:40;18;16;
28026;PMS5003;15344;52.342;-1.290;2023-05-19T02:32:05;20;17;
28026;PMS5003;15344;52.342;-1.290;2023-05-19T02:34:30;18;15;
28026;PMS5003;15344;52.342;-1.290;2023-05-19T02:36:56;14;14;
28026;PMS5003;15344;52.342;-1.290;2023-05-19T02:39:21;16;13;
28026;PMS5003;15344;52.342;-1.290;2023-05-19T02:41:47;16;11;
28026;PMS5003;15344;52.342;-1.290;2023-05-19T02:44:12;13;12;
28026;PMS5003;15344;52.342;-1.290;2023-05-19T02:46:38;16;14;
28026;PMS5003;15344;52.342;-1.290;2023-05-19T02:49:03;13;12;
28026;PMS5003;15344;52.342;-1.290;2023-05-19T02:51:29;15;11;
28026;PMS5003;15344;52.342;-1.290;2023-05-19T02:53:55;16;13;
28026;PMS5003;15344;52.342;-1.290;2023-05-19T02:56:21;14;14;
28026;PMS5003;15344;52.342;-1.290;2023-05-19T02:58:46;20;17;
28026;PMS5003;15344;52.342;-1.290;2023-05-19T03:01:12;13;12;
28026;PMS5003;15344;52.342;-1.290;2023-05-19T03:03:37;20;12;
28026;PMS5003;15344;52.342;-1.290;2023-05-19T03:06:03;18;16;
28026;PMS5003;15344;52.342;-1.290;2023-05-19T03:08:28;12;12;
28026;PMS5003;15344;52.342;-1.290;2023-05-19T03:10:54;16;13;
28026;PMS5003;15344;52.342;-1.290;2023-05-19T03:13:19;19;14;
28026;PMS5003;15344;52.342;-1.290;2023-05-19T03:15:45;13;12;
28026;PMS5003;15344;52.342;-1.290;2023-05-19T03:18:11;22;17;
28026;PMS5003;15344;52.342;-1.290;2023-05-19T03:20:36;19;17;
28026;PMS5003;15344;52.342;-1.290;2023-05-19T03:23:02;20;17;
28026;PMS5003;15344;52.342;-1.290;2023-05-19T03:25:28;17;15;
28026;PMS5003;15344;52.342;-1.290;2023-05-19T03:27:52;22;19;
28026;PMS5003;15344;52.342;-1.290;2023-05-19T03:30:18;18;16;
28026;PMS5003;15344;52.342;-1.290;2023-05-19T03:32:43;20;18;
28026;PMS5003;15344;52.342;-1.290;2023-05-19T03:35:09;18;17;
28026;PMS5003;15344;52.342;-1.290;2023-05-19T03:37:34;18;15;
28026;PMS5003;15344;52.342;-1.290;2023-05-19T03:40:00;16;13;
28026;PMS5003;15344;52.342;-1.290;2023-05-19T03:42:26;18;14;
28026;PMS5003;15344;52.342;-1.290;2023-05-19T03:44:51;15;14;
28026;PMS5003;15344;52.342;-1.290;2023-05-19T03:47:17;15;11;
28026;PMS5003;15344;52.342;-1.290;2023-05-19T03:49:42;14;12;
28026;PMS5003;15344;52.342;-1.290;2023-05-19T03:52:07;15;14;
28026;PMS5003;15344;52.342;-1.290;2023-05-19T03:54:33;15;15;
28026;PMS5003;15344;52.342;-1.290;2023-05-19T03:56:58;16;13;
28026;PMS5003;15344;52.342;-1.290;2023-05-19T03:59:24;18;13;
28026;PMS5003;15344;52.342;-1.290;2023-05-19T04:01:49;13;12;
28026;PMS5003;15344;52.342;-1.290;2023-05-19T04:04:14;21;17;
28026;PMS5003;15344;52.342;-1.290;2023-05-19T04:06:40;17;15;
28026;PMS5003;15344;52.342;-1.290;2023-05-19T04:09:09;21;16;
28026;PMS5003;15344;52.342;-1.290;2023-05-19T04:11:30;14;12;
28026;PMS5003;15344;52.342;-1.290;2023-05-19T04:13:56;18;16;
28026;PMS5003;15344;52.342;-1.290;2023-05-19T04:16:22;13;13;
28026;PMS5003;15344;52.342;-1.290;2023-05-19T04:18:47;21;14;
28026;PMS5003;15344;52.342;-1.290;2023-05-19T04:21:13;21;15;
28026;PMS5003;15344;52.342;-1.290;2023-05-19T04:23:38;17;13;
28026;PMS5003;15344;52.342;-1.290;2023-05-19T04:26:04;17;13;
28026;PMS5003;15344;52.342;-1.290;2023-05-19T04:28:29;15;12;
28026;PMS5003;15344;52.342;-1.290;2023-05-19T04:30:55;11;11;
28026;PMS5003;15344;52.342;-1.290;2023-05-19T04:33:20;15;14;
28026;PMS5003;15344;52.342;-1.290;2023-05-19T04:35:45;14;11;
28026;PMS5003;15344;52.342;-1.290;2023-05-19T04:38:11;12;12;
28026;PMS5003;15344;52.342;-1.290;2023-05-19T04:40:37;13;13;
28026;PMS5003;15344;52.342;-1.290;2023-05-19T04:43:01;17;13;
28026;PMS5003;15344;52.342;-1.290;2023-05-19T04:45:27;12;12;
28026;PMS5003;15344;52.342;-1.290;2023-05-19T04:47:52;16;11;
28026;PMS5003;15344;52.342;-1.290;2023-05-19T04:50:18;17;13;
28026;PMS5003;15344;52.342;-1.290;2023-05-19T04:52:44;19;14;
28026;PMS5003;15344;52.342;-1.290;2023-05-19T04:55:10;11;11;
28026;PMS5003;15344;52.342;-1.290;2023-05-19T04:57:34;16;15;
28026;PMS5003;15344;52.342;-1.290;2023-05-19T05:00:00;14;13;
28026;PMS5003;15344;52.342;-1.290;2023-05-19T05:02:26;13;11;
28026;PMS5003;15344;52.342;-1.290;2023-05-19T05:04:51;13;11;
28026;PMS5003;15344;52.342;-1.290;2023-05-19T05:07:17;19;14;
28026;PMS5003;15344;52.342;-1.290;2023-05-19T05:09:42;12;12;
28026;PMS5003;15344;52.342;-1.290;2023-05-19T05:12:08;12;12;
28026;PMS5003;15344;52.342;-1.290;2023-05-19T05:14:33;17;11;
28026;PMS5003;15344;52.342;-1.290;2023-05-19T05:16:58;15;13;
28026;PMS5003;15344;52.342;-1.290;2023-05-19T05:19:24;17;12;
28026;PMS5003;15344;52.342;-1.290;2023-05-19T05:21:49;14;12;
28026;PMS5003;15344;52.342;-1.290;2023-05-19T05:24:15;11;11;
28026;PMS5003;15344;52.342;-1.290;2023-05-19T05:26:40;20;11;
28026;PMS5003;15344;52.342;-1.290;2023-05-19T05:29:06;11;10;
28026;PMS5003;15344;52.342;-1.290;2023-05-19T05:31:30;15;12;
28026;PMS5003;15344;52.342;-1.290;2023-05-19T05:33:55;13;11;
28026;PMS5003;15344;52.342;-1.290;2023-05-19T05:36:20;11;10;
28026;PMS5003;15344;52.342;-1.290;2023-05-19T05:38:46;12;10;
28026;PMS5003;15344;52.342;-1.290;2023-05-19T05:41:12;13;12;
28026;PMS5003;15344;52.342;-1.290;2023-05-19T05:43:38;14;11;
28026;PMS5003;15344;52.342;-1.290;2023-05-19T05:46:03;14;13;
28026;PMS5003;15344;52.342;-1.290;2023-05-19T05:48:29;13;11;
28026;PMS5003;15344;52.342;-1.290;2023-05-19T05:50:54;16;11;
28026;PMS5003;15344;52.342;-1.290;2023-05-19T05:53:19;11;10;
28026;PMS5003;15344;52.342;-1.290;2023-05-19T05:55:45;13;10;
28026;PMS5003;15344;52.342;-1.290;2023-05-19T05:58:10;13;11;
28026;PMS5003;15344;52.342;-1.290;2023-05-19T06:00:36;15;12;
28026;PMS5003;15344;52.342;-1.290;2023-05-19T06:03:01;13;13;
28026;PMS5003;15344;52.342;-1.290;2023-05-19T06:05:27;13;12;
28026;PMS5003;15344;52.342;-1.290;2023-05-19T06:07:52;15;14;
28026;PMS5003;15344;52.342;-1.290;2023-05-19T06:10:18;12;12;
28026;PMS5003;15344;52.342;-1.290;2023-05-19T06:12:43;12;12;
28026;PMS5003;15344;52.342;-1.290;2023-05-19T06:15:09;18;16;
28026;PMS5003;15344;52.342;-1.290;2023-05-19T06:17:34;14;12;
28026;PMS5003;15344;52.342;-1.290;2023-05-19T06:20:00;15;15;
28026;PMS5003;15344;52.342;-1.290;2023-05-19T06:22:25;16;13;
28026;PMS5003;15344;52.342;-1.290;2023-05-19T06:24:51;12;10;
28026;PMS5003;15344;52.342;-1.290;2023-05-19T06:27:17;14;12;
28026;PMS5003;15344;52.342;-1.290;2023-05-19T06:29:43;13;13;
28026;PMS5003;15344;52.342;-1.290;2023-05-19T06:32:08;14;14;
28026;PMS5003;15344;52.342;-1.290;2023-05-19T06:34:33;13;13;
28026;PMS5003;15344;52.342;-1.290;2023-05-19T06:36:58;13;13;
28026;PMS5003;15344;52.342;-1.290;2023-05-19T06:39:24;13;13;
28026;PMS5003;15344;52.342;-1.290;2023-05-19T06:41:49;15;14;
28026;PMS5003;15344;52.342;-1.290;2023-05-19T06:44:15;16;13;
28026;PMS5003;15344;52.342;-1.290;2023-05-19T06:46:40;15;12;
28026;PMS5003;15344;52.342;-1.290;2023-05-19T06:49:06;11;11;
28026;PMS5003;15344;52.342;-1.290;2023-05-19T06:51:32;14;13;
28026;PMS5003;15344;52.342;-1.290;2023-05-19T06:53:57;16;13;
28026;PMS5003;15344;52.342;-1.290;2023-05-19T06:56:22;18;14;
28026;PMS5003;15344;52.342;-1.290;2023-05-19T06:58:47;13;12;
28026;PMS5003;15344;52.342;-1.290;2023-05-19T07:01:13;16;13;
28026;PMS5003;15344;52.342;-1.290;2023-05-19T07:03:38;20;16;
28026;PMS5003;15344;52.342;-1.290;2023-05-19T07:06:03;19;15;
28026;PMS5003;15344;52.342;-1.290;2023-05-19T07:08:29;16;15;
28026;PMS5003;15344;52.342;-1.290;2023-05-19T07:10:54;18;16;
28026;PMS5003;15344;52.342;-1.290;2023-05-19T07:13:20;16;16;
28026;PMS5003;15344;52.342;-1.290;2023-05-19T07:15:45;18;13;
28026;PMS5003;15344;52.342;-1.290;2023-05-19T07:18:10;13;12;
28026;PMS5003;15344;52.342;-1.290;2023-05-19T07:20:35;23;17;
28026;PMS5003;15344;52.342;-1.290;2023-05-19T07:23:01;15;13;
28026;PMS5003;15344;52.342;-1.290;2023-05-19T07:25:26;16;15;
28026;PMS5003;15344;52.342;-1.290;2023-05-19T07:27:51;21;18;
28026;PMS5003;15344;52.342;-1.290;2023-05-19T07:30:16;21;18;
28026;PMS5003;15344;52.342;-1.290;2023-05-19T07:32:41;21;17;
28026;PMS5003;15344;52.342;-1.290;2023-05-19T07:35:06;21;19;
28026;PMS5003;15344;52.342;-1.290;2023-05-19T07:37:32;18;17;
28026;PMS5003;15344;52.342;-1.290;2023-05-19T07:39:57;22;20;
28026;PMS5003;15344;52.342;-1.290;2023-05-19T07:42:23;20;16;
28026;PMS5003;15344;52.342;-1.290;2023-05-19T07:44:48;23;20;
28026;PMS5003;15344;52.342;-1.290;2023-05-19T07:47:13;25;23;
28026;PMS5003;15344;52.342;-1.290;2023-05-19T07:49:38;21;18;
28026;PMS5003;15344;52.342;-1.290;2023-05-19T07:52:04;27;25;
28026;PMS5003;15344;52.342;-1.290;2023-05-19T07:54:29;22;16;
28026;PMS5003;15344;52.342;-1.290;2023-05-19T07:56:54;24;20;
28026;PMS5003;15344;52.342;-1.290;2023-05-19T07:59:19;18;18;
28026;PMS5003;15344;52.342;-1.290;2023-05-19T08:01:45;28;22;
28026;PMS5003;15344;52.342;-1.290;2023-05-19T08:04:10;17;16;
28026;PMS5003;15344;52.342;-1.290;2023-05-19T08:06:36;28;23;
28026;PMS5003;15344;52.342;-1.290;2023-05-19T08:09:01;20;19;
28026;PMS5003;15344;52.342;-1.290;2023-05-19T08:11:26;16;16;
28026;PMS5003;15344;52.342;-1.290;2023-05-19T08:13:52;25;18;
28026;PMS5003;15344;52.342;-1.290;2023-05-19T08:16:17;18;17;
28026;PMS5003;15344;52.342;-1.290;2023-05-19T08:18:42;19;16;
28026;PMS5003;15344;52.342;-1.290;2023-05-19T08:21:07;22;20;
28026;PMS5003;15344;52.342;-1.290;2023-05-19T08:23:33;19;16;
28026;PMS5003;15344;52.342;-1.290;2023-05-19T08:25:58;16;16;
28026;PMS5003;15344;52.342;-1.290;2023-05-19T08:28:24;20;16;
28026;PMS5003;15344;52.342;-1.290;2023-05-19T08:30:49;16;13;
28026;PMS5003;15344;52.342;-1.290;2023-05-19T08:33:15;16;15;
28026;PMS5003;15344;52.342;-1.290;2023-05-19T08:35:41;15;13;
28026;PMS5003;15344;52.342;-1.290;2023-05-19T08:38:06;16;12;
28026;PMS5003;15344;52.342;-1.290;2023-05-19T08:40:32;12;10;
28026;PMS5003;15344;52.342;-1.290;2023-05-19T08:42:58;14;13;
28026;PMS5003;15344;52.342;-1.290;2023-05-19T08:45:23;15;13;
28026;PMS5003;15344;52.342;-1.290;2023-05-19T08:47:49;15;13;
28026;PMS5003;15344;52.342;-1.290;2023-05-19T08:50:16;12;11;
28026;PMS5003;15344;52.342;-1.290;2023-05-19T08:52:44;12;11;
28026;PMS5003;15344;52.342;-1.290;2023-05-19T08:55:07;13;11;
28026;PMS5003;15344;52.342;-1.290;2023-05-19T08:57:31;16;13;
28026;PMS5003;15344;52.342;-1.290;2023-05-19T08:59:57;14;12;
28026;PMS5003;15344;52.342;-1.290;2023-05-19T09:02:22;13;10;
28026;PMS5003;15344;52.342;-1.290;2023-05-19T09:04:48;14;12;
28026;PMS5003;15344;52.342;-1.290;2023-05-19T09:07:14;16;13;
28026;PMS5003;15344;52.342;-1.290;2023-05-19T09:09:39;17;13;
28026;PMS5003;15344;52.342;-1.290;2023-05-19T09:12:05;16;15;
28026;PMS5003;15344;52.342;-1.290;2023-05-19T09:14:29;12;9;
28026;PMS5003;15344;52.342;-1.290;2023-05-19T09:16:55;11;10;
28026;PMS5003;15344;52.342;-1.290;2023-05-19T09:19:20;11;10;
28026;PMS5003;15344;52.342;-1.290;2023-05-19T09:21:49;8;8;
28026;PMS5003;15344;52.342;-1.290;2023-05-19T09:24:12;13;9;
28026;PMS5003;15344;52.342;-1.290;2023-05-19T09:26:38;7;7;
28026;PMS5003;15344;52.342;-1.290;2023-05-19T09:31:30;10;8;
28026;PMS5003;15344;52.342;-1.290;2023-05-19T09:33:55;12;8;
28026;PMS5003;15344;52.342;-1.290;2023-05-19T09:36:21;14;10;
28026;PMS5003;15344;52.342;-1.290;2023-05-19T09:38:46;12;10;
28026;PMS5003;15344;52.342;-1.290;2023-05-19T09:41:13;12;10;
28026;PMS5003;15344;52.342;-1.290;2023-05-19T09:43:37;11;9;
28026;PMS5003;15344;52.342;-1.290;2023-05-19T09:46:03;14;11;
28026;PMS5003;15344;52.342;-1.290;2023-05-19T09:48:29;14;9;
28026;PMS5003;15344;52.342;-1.290;2023-05-19T09:50:54;13;11;
28026;PMS5003;15344;52.342;-1.290;2023-05-19T09:53:20;12;10;
28026;PMS5003;15344;52.342;-1.290;2023-05-19T09:55:45;10;9;
28026;PMS5003;15344;52.342;-1.290;2023-05-19T09:58:13;13;13;
28026;PMS5003;15344;52.342;-1.290;2023-05-19T10:00:35;13;11;
28026;PMS5003;15344;52.342;-1.290;2023-05-19T10:03:02;17;15;
28026;PMS5003;15344;52.342;-1.290;2023-05-19T10:05:27;15;13;
28026;PMS5003;15344;52.342;-1.290;2023-05-19T10:07:54;17;13;
28026;PMS5003;15344;52.342;-1.290;2023-05-19T10:10:18;21;16;
28026;PMS5003;15344;52.342;-1.290;2023-05-19T10:12:44;15;13;
28026;PMS5003;15344;52.342;-1.290;2023-05-19T10:15:11;17;14;
28026;PMS5003;15344;52.342;-1.290;2023-05-19T10:17:37;16;11;
28026;PMS5003;15344;52.342;-1.290;2023-05-19T10:20:01;15;13;
28026;PMS5003;15344;52.342;-1.290;2023-05-19T10:22:26;11;9;
28026;PMS5003;15344;52.342;-1.290;2023-05-19T10:24:51;16;11;
28026;PMS5003;15344;52.342;-1.290;2023-05-19T10:27:17;16;14;
28026;PMS5003;15344;52.342;-1.290;2023-05-19T10:29:47;13;11;
28026;PMS5003;15344;52.342;-1.290;2023-05-19T10:32:09;17;12;
28026;PMS5003;15344;52.342;-1.290;2023-05-19T10:34:42;13;12;
28026;PMS5003;15344;52.342;-1.290;2023-05-19T10:37:01;16;13;
28026;PMS5003;15344;52.342;-1.290;2023-05-19T10:39:24;11;11;
28026;PMS5003;15344;52.342;-1.290;2023-05-19T10:41:52;15;15;
28026;PMS5003;15344;52.342;-1.290;2023-05-19T10:44:16;16;13;
28026;PMS5003;15344;52.342;-1.290;2023-05-19T10:46:39;20;17;
28026;PMS5003;15344;52.342;-1.290;2023-05-19T10:49:05;20;17;
28026;PMS5003;15344;52.342;-1.290;2023-05-19T10:51:30;11;11;
28026;PMS5003;15344;52.342;-1.290;2023-05-19T10:53:55;15;12;
28026;PMS5003;15344;52.342;-1.290;2023-05-19T10:58:49;16;13;
28026;PMS5003;15344;52.342;-1.290;2023-05-19T11:01:12;17;14;
28026;PMS5003;15344;52.342;-1.290;2023-05-19T11:08:30;12;11;
28026;PMS5003;15344;52.342;-1.290;2023-05-19T11:10:53;15;14;
28026;PMS5003;15344;52.342;-1.290;2023-05-19T11:13:19;19;16;
28026;PMS5003;15344;52.342;-1.290;2023-05-19T11:15:44;14;14;
28026;PMS5003;15344;52.342;-1.290;2023-05-19T11:18:09;13;11;
28026;PMS5003;15344;52.342;-1.290;2023-05-19T11:20:35;19;14;
28026;PMS5003;15344;52.342;-1.290;2023-05-19T11:23:04;18;15;
28026;PMS5003;15344;52.342;-1.290;2023-05-19T11:27:51;17;12;
28026;PMS5003;15344;52.342;-1.290;2023-05-19T11:30:16;17;13;
28026;PMS5003;15344;52.342;-1.290;2023-05-19T11:32:41;18;14;
28026;PMS5003;15344;52.342;-1.290;2023-05-19T11:35:07;11;10;
28026;PMS5003;15344;52.342;-1.290;2023-05-19T11:37:31;16;14;
28026;PMS5003;15344;52.342;-1.290;2023-05-19T11:39:56;12;10;
28026;PMS5003;15344;52.342;-1.290;2023-05-19T11:42:21;12;11;
28026;PMS5003;15344;52.342;-1.290;2023-05-19T11:44:47;12;10;
28026;PMS5003;15344;52.342;-1.290;2023-05-19T11:47:12;14;10;
28026;PMS5003;15344;52.342;-1.290;2023-05-19T11:49:37;16;14;
28026;PMS5003;15344;52.342;-1.290;2023-05-19T11:52:03;16;13;
28026;PMS5003;15344;52.342;-1.290;2023-05-19T11:54:28;16;12;
28026;PMS5003;15344;52.342;-1.290;2023-05-19T11:56:53;14;12;
28026;PMS5003;15344;52.342;-1.290;2023-05-19T11:59:18;13;12;
28026;PMS5003;15344;52.342;-1.290;2023-05-19T12:01:43;15;13;
28026;PMS5003;15344;52.342;-1.290;2023-05-19T12:04:09;17;13;
28026;PMS5003;15344;52.342;-1.290;2023-05-19T12:06:34;15;13;
28026;PMS5003;15344;52.342;-1.290;2023-05-19T12:08:59;16;12;
28026;PMS5003;15344;52.342;-1.290;2023-05-19T12:11:24;21;17;
28026;PMS5003;15344;52.342;-1.290;2023-05-19T12:13:49;14;14;
28026;PMS5003;15344;52.342;-1.290;2023-05-19T12:16:14;14;12;
28026;PMS5003;15344;52.342;-1.290;2023-05-19T12:18:39;11;11;
28026;PMS5003;15344;52.342;-1.290;2023-05-19T12:21:05;14;12;
28026;PMS5003;15344;52.342;-1.290;2023-05-19T12:23:31;12;12;
28026;PMS5003;15344;52.342;-1.290;2023-05-19T12:25:56;17;15;
28026;PMS5003;15344;52.342;-1.290;2023-05-19T12:28:21;13;13;
28026;PMS5003;15344;52.342;-1.290;2023-05-19T12:30:47;15;13;
28026;PMS5003;15344;52.342;-1.290;2023-05-19T12:33:13;11;10;
28026;PMS5003;15344;52.342;-1.290;2023-05-19T12:35:37;12;11;
28026;PMS5003;15344;52.342;-1.290;2023-05-19T12:38:03;16;14;
28026;PMS5003;15344;52.342;-1.290;2023-05-19T12:40:28;11;11;
28026;PMS5003;15344;52.342;-1.290;2023-05-19T12:42:55;11;11;
28026;PMS5003;15344;52.342;-1.290;2023-05-19T12:45:19;13;10;
28026;PMS5003;15344;52.342;-1.290;2023-05-19T12:47:45;16;11;
28026;PMS5003;15344;52.342;-1.290;2023-05-19T12:50:10;13;13;
28026;PMS5003;15344;52.342;-1.290;2023-05-19T12:52:40;15;14;
28026;PMS5003;15344;52.342;-1.290;2023-05-19T12:55:01;16;13;
28026;PMS5003;15344;52.342;-1.290;2023-05-19T12:57:26;13;12;
28026;PMS5003;15344;52.342;-1.290;2023-05-19T12:59:51;16;14;
28026;PMS5003;15344;52.342;-1.290;2023-05-19T13:02:17;15;15;
28026;PMS5003;15344;52.342;-1.290;2023-05-19T13:04:42;24;17;
28026;PMS5003;15344;52.342;-1.290;2023-05-19T13:07:07;17;16;
28026;PMS5003;15344;52.342;-1.290;2023-05-19T13:09:32;24;20;
28026;PMS5003;15344;52.342;-1.290;2023-05-19T13:11:59;22;16;
28026;PMS5003;15344;52.342;-1.290;2023-05-19T13:14:24;21;17;
28026;PMS5003;15344;52.342;-1.290;2023-05-19T13:16:49;23;18;
28026;PMS5003;15344;52.342;-1.290;2023-05-19T13:19:17;21;19;
28026;PMS5003;15344;52.342;-1.290;2023-05-19T13:21:40;25;23;
28026;PMS5003;15344;52.342;-1.290;2023-05-19T13:24:06;28;23;
28026;PMS5003;15344;52.342;-1.290;2023-05-19T13:26:31;50;38;
28026;PMS5003;15344;52.342;-1.290;2023-05-19T13:28:57;26;20;
28026;PMS5003;15344;52.342;-1.290;2023-05-19T13:31:23;26;20;
28026;PMS5003;15344;52.342;-1.290;2023-05-19T13:33:48;30;24;
28026;PMS5003;15344;52.342;-1.290;2023-05-19T13:36:13;27;25;
28026;PMS5003;15344;52.342;-1.290;2023-05-19T13:38:38;22;22;
28026;PMS5003;15344;52.342;-1.290;2023-05-19T13:41:04;27;21;
28026;PMS5003;15344;52.342;-1.290;2023-05-19T13:43:30;26;21;
28026;PMS5003;15344;52.342;-1.290;2023-05-19T13:45:55;25;19;
28026;PMS5003;15344;52.342;-1.290;2023-05-19T13:48:20;17;17;
28026;PMS5003;15344;52.342;-1.290;2023-05-19T13:50:45;22;20;
28026;PMS5003;15344;52.342;-1.290;2023-05-19T13:53:10;16;16;
28026;PMS5003;15344;52.342;-1.290;2023-05-19T13:55:36;19;19;
28026;PMS5003;15344;52.342;-1.290;2023-05-19T13:58:01;21;19;
28026;PMS5003;15344;52.342;-1.290;2023-05-19T14:00:27;24;19;
28026;PMS5003;15344;52.342;-1.290;2023-05-19T14:02:52;23;21;
28026;PMS5003;15344;52.342;-1.290;2023-05-19T14:05:18;18;18;
28026;PMS5003;15344;52.342;-1.290;2023-05-19T14:07:44;22;16;
28026;PMS5003;15344;52.342;-1.290;2023-05-19T14:10:09;16;15;
28026;PMS5003;15344;52.342;-1.290;2023-05-19T14:12:35;23;18;
28026;PMS5003;15344;52.342;-1.290;2023-05-19T14:15:00;21;19;
28026;PMS5003;15344;52.342;-1.290;2023-05-19T14:17:25;14;13;
28026;PMS5003;15344;52.342;-1.290;2023-05-19T14:19:50;16;13;
28026;PMS5003;15344;52.342;-1.290;2023-05-19T14:22:16;14;12;
28026;PMS5003;15344;52.342;-1.290;2023-05-19T14:24:42;9;9;
28026;PMS5003;15344;52.342;-1.290;2023-05-19T14:27:07;18;15;
28026;PMS5003;15344;52.342;-1.290;2023-05-19T14:29:33;17;15;
28026;PMS5003;15344;52.342;-1.290;2023-05-19T14:31:58;14;11;
28026;PMS5003;15344;52.342;-1.290;2023-05-19T14:34:23;20;14;
28026;PMS5003;15344;52.342;-1.290;2023-05-19T14:36:49;14;13;
28026;PMS5003;15344;52.342;-1.290;2023-05-19T14:39:14;15;13;
28026;PMS5003;15344;52.342;-1.290;2023-05-19T14:41:39;13;12;
28026;PMS5003;15344;52.342;-1.290;2023-05-19T14:44:05;11;10;
28026;PMS5003;15344;52.342;-1.290;2023-05-19T14:46:30;14;13;
28026;PMS5003;15344;52.342;-1.290;2023-05-19T14:48:55;14;14;
28026;PMS5003;15344;52.342;-1.290;2023-05-19T14:51:20;14;12;
28026;PMS5003;15344;52.342;-1.290;2023-05-19T14:53:46;15;11;
28026;PMS5003;15344;52.342;-1.290;2023-05-19T14:56:11;14;10;
28026;PMS5003;15344;52.342;-1.290;2023-05-19T14:58:36;12;9;
28026;PMS5003;15344;52.342;-1.290;2023-05-19T15:01:01;13;10;
28026;PMS5003;15344;52.342;-1.290;2023-05-19T15:03:26;13;10;
28026;PMS5003;15344;52.342;-1.290;2023-05-19T15:05:52;13;12;
28026;PMS5003;15344;52.342;-1.290;2023-05-19T15:08:17;15;12;
28026;PMS5003;15344;52.342;-1.290;2023-05-19T15:10:42;11;10;
28026;PMS5003;15344;52.342;-1.290;2023-05-19T15:13:08;15;10;
28026;PMS5003;15344;52.342;-1.290;2023-05-19T15:15:33;19;13;
28026;PMS5003;15344;52.342;-1.290;2023-05-19T15:17:59;13;11;
28026;PMS5003;15344;52.342;-1.290;2023-05-19T15:20:24;11;10;
28026;PMS5003;15344;52.342;-1.290;2023-05-19T15:22:49;15;13;
28026;PMS5003;15344;52.342;-1.290;2023-05-19T15:25:15;11;10;
28026;PMS5003;15344;52.342;-1.290;2023-05-19T15:27:41;12;10;
28026;PMS5003;15344;52.342;-1.290;2023-05-19T15:30:07;14;11;
28026;PMS5003;15344;52.342;-1.290;2023-05-19T15:32:31;12;11;
28026;PMS5003;15344;52.342;-1.290;2023-05-19T15:34:56;11;11;
28026;PMS5003;15344;52.342;-1.290;2023-05-19T15:37:21;15;9;
28026;PMS5003;15344;52.342;-1.290;2023-05-19T15:39:47;14;10;
28026;PMS5003;15344;52.342;-1.290;2023-05-19T15:42:12;17;13;
28026;PMS5003;15344;52.342;-1.290;2023-05-19T15:44:38;14;12;
28026;PMS5003;15344;52.342;-1.290;2023-05-19T15:47:04;14;8;
28026;PMS5003;15344;52.342;-1.290;2023-05-19T15:49:30;11;10;
28026;PMS5003;15344;52.342;-1.290;2023-05-19T15:51:54;19;14;
28026;PMS5003;15344;52.342;-1.290;2023-05-19T15:54:19;8;8;
28026;PMS5003;15344;52.342;-1.290;2023-05-19T15:56:44;16;14;
28026;PMS5003;15344;52.342;-1.290;2023-05-19T15:59:09;13;12;
28026;PMS5003;15344;52.342;-1.290;2023-05-19T16:01:35;15;12;
28026;PMS5003;15344;52.342;-1.290;2023-05-19T16:04:01;10;10;